Overview Statistics Trail Chart Weather Telemetry Raw packets
 

This is the latest recevied weather packets stored in our database for station/object DM8MH-13. If no packets are shown the sender has not sent any weather packets the latest 10 day(s).

<< 21 22 23 24 25 26 27 >>
Time Temp. Humidity Pressure Rain* Wind** Luminosity Snow
1788272471 23.89° C 56% 1018.1 hPa 0 mm - 384 W/m² -
1788271871 23.89° C 55% 1018.2 hPa 0 mm - 223 W/m² -
1788271271 23.89° C 54% 1018.1 hPa 0 mm - 662 W/m² -
1788270686 23.89° C 53% 1018.2 hPa 0 mm - 292 W/m² -
1788270072 23.89° C 54% 1018.3 hPa 0 mm - 654 W/m² -
1788269470 23.33° C 56% 1018.3 hPa 0 mm - 307 W/m² -
1788268872 23.89° C 55% 1018.3 hPa 0 mm - 419 W/m² -
1788268271 23.89° C 55% 1018.3 hPa 0 mm - 700 W/m² -
1788267671 23.89° C 54% 1018.4 hPa 0 mm - 690 W/m² -
1788267072 23.89° C 56% 1018.5 hPa 0 mm - 740 W/m² -
1788266472 23.33° C 57% 1018.5 hPa 0 mm - 673 W/m² -
1788265871 23.33° C 62% 1018.6 hPa 0 mm - 584 W/m² -
1788265271 22.78° C 62% 1018.7 hPa 0 mm - 680 W/m² -
1788264671 22.22° C 65% 1018.8 hPa 0 mm - 437 W/m² -
1788264071 21.67° C 67% 1018.7 hPa 0 mm - 712 W/m² -
1788263472 20.56° C 71% 1018.9 hPa 0 mm - 548 W/m² -
1788262872 21.11° C 71% 1018.9 hPa 0 mm - 150 W/m² -
1788262270 21.67° C 65% 1018.7 hPa 0 mm - 235 W/m² -
1788261670 22.22° C 60% 1018.6 hPa 0 mm - 542 W/m² -
1788261071 22.22° C 62% 1018.8 hPa 0 mm - 671 W/m² -
1788260471 22.22° C 64% 1018.8 hPa 0 mm - 752 W/m² -
1788259870 21.67° C 66% 1018.9 hPa 0 mm - 753 W/m² -
1788259271 21.67° C 66% 1018.9 hPa 0 mm - 608 W/m² -
1788258671 21.67° C 67% 1018.9 hPa 0 mm - 430 W/m² -
1788258071 21.11° C 68% 1018.8 hPa 0 mm - 794 W/m² -

* Rain latest hour (hover to see other rain measurements)
** Current wind speed in m/s (hover to see current wind gust speed)